Sudbury, Vermont
Current Conditions -  °F | °C
As of 9:35 AM on Saturday 22 Nov 2014 (Local Time) from K6B0 Reporting Station
Clear Clear  
Wind Chill: 15°   Ceiling: Unl
Heat Index: 27°   Visibility: 10mi
Dew Point: 14°   Wind: 15mph
Humidity: 57%   Direction: 180°S
Pressure: 30.24"   Gusts: 21mph
Location:  43.8209°N, 73.0875°W
Report Text: K6B0 221435Z AUTO 18013G18KT 10SM CLR M03/M10 A3024 RMK AO2 T10271101
Loading
Personal Weather Stations






























Interactive Weather Map New forecast layout! Learn more

10-Day Weather Forecast

Advertisements
Track Severe Weather on mobile